Time;durP1;ratioP1;P1;durP2;ratioP2;P2;SDS_P1;SDS_P2;PMS_P1;PMS_P2;Temp;Humidity;BMP_temperature;BMP_pressure;BME280_temperature;BME280_humidity;BME280_pressure;Samples;Min_cycle;Max_cycle;Signal;HPM_P1;HPM_P2
2021/07/26 00:00:51;;;;;;;8.82;8.02;;;;;;;;;;3597821;40;20616;-41
2021/07/26 00:03:18;;;;;;;8.65;7.85;;;;;;;;;;3598262;40;20229;-40
2021/07/26 00:05:55;;;;;;;8.88;8.18;;;;;;;;;;3597930;40;20241;-40
2021/07/26 00:08:23;;;;;;;9.18;8.38;;;;;;;;;;3597254;40;20249;-40
2021/07/26 00:10:50;;;;;;;8.68;7.97;;;;;;;;;;3598061;39;20234;-40
2021/07/26 00:13:17;;;;;;;9.63;8.73;;;;;;;;;;3597290;40;20242;-39
2021/07/26 00:15:45;;;;;;;9.75;8.40;;;;;;;;;;3597315;40;20241;-40
2021/07/26 00:18:12;;;;;;;8.98;8.18;;;;;;;;;;3597767;40;20237;-39
2021/07/26 00:20:39;;;;;;;8.52;7.60;;;;;;;;;;3597934;40;20238;-43
2021/07/26 00:23:08;;;;;;;8.02;7.32;;;;;;;;;;3597671;40;20280;-39
2021/07/26 00:25:35;;;;;;;9.10;8.20;;;;;;;;;;3597624;40;20520;-42
2021/07/26 00:28:04;;;;;;;8.05;7.22;;;;;;;;;;3597221;40;20241;-40
2021/07/26 00:30:31;;;;;;;9.18;8.27;;;;;;;;;;3597889;40;20230;-41
2021/07/26 00:32:58;;;;;;;8.20;7.43;;;;;;;;;;3597858;40;20604;-40
2021/07/26 00:35:26;;;;;;;8.15;7.45;;;;;;;;;;3597689;40;20301;-39
2021/07/26 00:37:53;;;;;;;7.72;6.97;;;;;;;;;;3597680;40;20613;-40
2021/07/26 00:40:24;;;;;;;9.25;8.45;;;;;;;;;;3598264;40;20245;-42
2021/07/26 00:42:52;;;;;;;9.25;8.05;;;;;;;;;;3598383;39;20265;-40
2021/07/26 00:45:19;;;;;;;8.60;7.90;;;;;;;;;;3599156;40;20233;-40
2021/07/26 00:47:46;;;;;;;12.20;9.30;;;;;;;;;;3598978;40;20331;-41
2021/07/26 00:50:14;;;;;;;10.20;9.25;;;;;;;;;;3599086;40;20237;-40
2021/07/26 00:52:41;;;;;;;9.90;8.60;;;;;;;;;;3599079;40;20256;-40
2021/07/26 00:55:09;;;;;;;10.85;8.60;;;;;;;;;;3599007;40;20503;-40
2021/07/26 00:57:38;;;;;;;8.88;8.05;;;;;;;;;;3598478;40;20609;-40
2021/07/26 01:00:06;;;;;;;8.93;8.13;;;;;;;;;;3600248;40;20245;-40
2021/07/26 01:02:34;;;;;;;10.18;9.15;;;;;;;;;;3599196;40;20234;-41
2021/07/26 01:05:01;;;;;;;9.20;8.40;;;;;;;;;;3599078;40;20245;-41
2021/07/26 01:07:28;;;;;;;9.27;8.35;;;;;;;;;;3598338;40;20634;-42
2021/07/26 01:09:56;;;;;;;9.57;8.75;;;;;;;;;;3598701;40;20240;-42
2021/07/26 01:12:23;;;;;;;9.45;8.60;;;;;;;;;;3598702;40;20315;-41
2021/07/26 01:14:52;;;;;;;10.23;9.15;;;;;;;;;;3589574;40;20249;-41
2021/07/26 01:17:29;;;;;;;9.40;8.10;;;;;;;;;;3598636;40;20326;-40
2021/07/26 01:19:56;;;;;;;15.98;11.15;;;;;;;;;;3598602;40;20527;-40
2021/07/26 01:22:25;;;;;;;12.43;9.15;;;;;;;;;;3598479;40;20627;-40
2021/07/26 01:24:52;;;;;;;10.65;9.50;;;;;;;;;;3598631;40;20245;-41
2021/07/26 01:27:19;;;;;;;9.40;8.50;;;;;;;;;;3599247;40;20261;-41
2021/07/26 01:29:47;;;;;;;9.20;8.25;;;;;;;;;;3599006;40;20609;-40
2021/07/26 01:32:14;;;;;;;9.18;8.25;;;;;;;;;;3599006;40;20303;-41
2021/07/26 01:34:41;;;;;;;8.65;7.57;;;;;;;;;;3598312;40;20617;-41
2021/07/26 01:37:08;;;;;;;10.57;8.90;;;;;;;;;;3598785;40;20530;-41
2021/07/26 01:39:37;;;;;;;10.35;9.35;;;;;;;;;;3598553;40;20237;-41
2021/07/26 01:42:05;;;;;;;10.07;9.18;;;;;;;;;;3598707;40;20342;-40
2021/07/26 01:44:32;;;;;;;9.65;8.75;;;;;;;;;;3598938;40;20234;-41
2021/07/26 01:47:03;;;;;;;12.55;9.10;;;;;;;;;;3598771;40;20238;-42
2021/07/26 01:49:38;;;;;;;10.60;9.60;;;;;;;;;;3599117;40;20253;-41
2021/07/26 01:52:06;;;;;;;10.15;9.15;;;;;;;;;;3598679;40;20237;-41
2021/07/26 01:54:33;;;;;;;9.85;8.85;;;;;;;;;;3598052;39;20620;-40
2021/07/26 01:57:02;;;;;;;14.68;9.73;;;;;;;;;;3598133;40;20655;-41
2021/07/26 01:59:30;;;;;;;11.57;9.82;;;;;;;;;;3598421;40;20245;-41
2021/07/26 02:01:57;;;;;;;14.15;9.25;;;;;;;;;;3598645;40;20238;-41
2021/07/26 02:04:25;;;;;;;10.48;9.35;;;;;;;;;;3598161;40;20237;-40
2021/07/26 02:06:52;;;;;;;11.27;9.13;;;;;;;;;;3598363;40;20254;-42
2021/07/26 02:09:19;;;;;;;11.77;9.27;;;;;;;;;;3598932;40;20524;-42
2021/07/26 02:11:47;;;;;;;11.38;10.07;;;;;;;;;;3593437;40;20235;-41
2021/07/26 02:14:17;;;;;;;12.40;10.15;;;;;;;;;;3588494;40;20578;-40
2021/07/26 02:16:44;;;;;;;10.32;9.27;;;;;;;;;;3588222;40;20238;-42
2021/07/26 02:19:12;;;;;;;13.20;11.07;;;;;;;;;;3588457;40;20238;-42
2021/07/26 02:21:40;;;;;;;10.93;9.75;;;;;;;;;;3588738;40;20238;-40
2021/07/26 02:24:07;;;;;;;13.70;10.75;;;;;;;;;;3588936;40;20611;-40
2021/07/26 02:26:35;;;;;;;10.07;9.07;;;;;;;;;;3588155;40;20598;-41
2021/07/26 02:29:05;;;;;;;15.15;9.95;;;;;;;;;;3588322;40;20238;-41
2021/07/26 02:31:33;;;;;;;11.68;9.10;;;;;;;;;;3588381;40;20253;-41
2021/07/26 02:34:01;;;;;;;11.27;9.45;;;;;;;;;;3588829;40;20498;-45
2021/07/26 02:36:28;;;;;;;12.13;9.70;;;;;;;;;;3588012;40;20538;-40
2021/07/26 02:38:55;;;;;;;10.02;9.13;;;;;;;;;;3588092;40;20246;-42
2021/07/26 02:41:23;;;;;;;11.05;9.48;;;;;;;;;;3588056;40;20246;-41
2021/07/26 02:43:50;;;;;;;10.63;9.38;;;;;;;;;;3588230;40;20537;-41
2021/07/26 02:46:17;;;;;;;10.73;9.68;;;;;;;;;;3589529;39;20233;-41
2021/07/26 02:48:46;;;;;;;13.95;10.45;;;;;;;;;;3603649;40;20233;-40
2021/07/26 02:51:14;;;;;;;14.40;10.63;;;;;;;;;;3602548;40;20234;-41
2021/07/26 02:53:42;;;;;;;11.02;9.18;;;;;;;;;;3598815;40;20322;-41
2021/07/26 02:56:12;;;;;;;12.80;11.40;;;;;;;;;;3599183;39;20293;-40
2021/07/26 02:58:39;;;;;;;10.27;9.18;;;;;;;;;;3587304;40;20310;-41
2021/07/26 03:01:10;;;;;;;10.23;8.38;;;;;;;;;;3587801;40;20239;-41
2021/07/26 03:03:37;;;;;;;10.45;9.38;;;;;;;;;;3588444;40;20302;-42
2021/07/26 03:06:06;;;;;;;10.40;8.73;;;;;;;;;;3589691;40;20616;-41
2021/07/26 03:08:35;;;;;;;11.20;8.65;;;;;;;;;;3598118;40;20234;-42
2021/07/26 03:11:03;;;;;;;10.77;9.68;;;;;;;;;;3598365;40;20237;-41
2021/07/26 03:13:31;;;;;;;11.27;9.98;;;;;;;;;;3597869;40;20547;-40
2021/07/26 03:15:58;;;;;;;13.38;9.13;;;;;;;;;;3598286;39;20237;-41
2021/07/26 03:18:25;;;;;;;12.70;9.20;;;;;;;;;;3598968;40;20241;-41
2021/07/26 03:20:53;;;;;;;13.15;8.30;;;;;;;;;;3598168;40;20253;-40
2021/07/26 03:23:21;;;;;;;11.38;7.50;;;;;;;;;;3598290;40;20710;-42
2021/07/26 03:25:49;;;;;;;12.15;8.82;;;;;;;;;;3597913;39;20244;-41
2021/07/26 03:28:16;;;;;;;13.95;8.68;;;;;;;;;;3598085;40;20337;-42
2021/07/26 03:30:43;;;;;;;16.38;8.90;;;;;;;;;;3597882;40;20241;-41
2021/07/26 03:33:11;;;;;;;11.35;8.77;;;;;;;;;;3599241;40;20229;-42
2021/07/26 03:35:39;;;;;;;10.90;7.97;;;;;;;;;;3599502;39;20230;-41
2021/07/26 03:38:06;;;;;;;12.52;8.15;;;;;;;;;;3597902;40;20260;-40
2021/07/26 03:40:35;;;;;;;9.57;8.55;;;;;;;;;;3597742;40;20241;-41
2021/07/26 03:43:03;;;;;;;11.38;8.75;;;;;;;;;;3598516;40;20248;-41
2021/07/26 03:45:31;;;;;;;9.48;7.65;;;;;;;;;;3597662;40;20233;-43
2021/07/26 03:47:59;;;;;;;12.35;9.20;;;;;;;;;;3597636;39;20632;-41
2021/07/26 03:50:27;;;;;;;9.43;8.20;;;;;;;;;;3598380;40;20249;-41
2021/07/26 03:52:55;;;;;;;9.50;7.97;;;;;;;;;;3598389;40;20524;-42
2021/07/26 03:55:23;;;;;;;10.57;7.57;;;;;;;;;;3598384;40;20616;-40
2021/07/26 03:57:53;;;;;;;9.60;8.38;;;;;;;;;;3598588;39;20233;-42
2021/07/26 04:00:22;;;;;;;10.60;7.47;;;;;;;;;;3597578;40;20690;-41
2021/07/26 04:02:53;;;;;;;10.05;7.22;;;;;;;;;;3597916;40;20249;-41
2021/07/26 04:05:28;;;;;;;10.27;7.10;;;;;;;;;;3598234;40;20241;-41
2021/07/26 04:07:55;;;;;;;11.00;7.10;;;;;;;;;;3597451;39;20252;-42
2021/07/26 04:10:23;;;;;;;12.70;7.78;;;;;;;;;;3598212;40;20243;-40
2021/07/26 04:12:52;;;;;;;11.73;7.40;;;;;;;;;;3588528;40;20312;-40
2021/07/26 04:15:21;;;;;;;12.40;6.80;;;;;;;;;;3588073;40;20624;-40
2021/07/26 04:17:49;;;;;;;8.68;7.13;;;;;;;;;;3587555;40;20242;-41
2021/07/26 04:20:16;;;;;;;11.90;7.25;;;;;;;;;;3589144;40;20245;-40
2021/07/26 04:22:43;;;;;;;6.90;6.30;;;;;;;;;;3589195;40;20238;-42
2021/07/26 04:25:11;;;;;;;11.25;6.93;;;;;;;;;;3589352;40;20242;-41
2021/07/26 04:27:57;;;;;;;7.40;6.15;;;;;;;;;;3589007;40;20253;-40
2021/07/26 04:30:37;;;;;;;9.20;6.95;;;;;;;;;;3589632;40;20244;-41
2021/07/26 04:33:05;;;;;;;7.55;6.78;;;;;;;;;;3589248;40;20339;-41
2021/07/26 04:35:32;;;;;;;10.32;7.25;;;;;;;;;;3588960;40;20234;-41
2021/07/26 04:37:59;;;;;;;7.65;6.75;;;;;;;;;;3588598;40;20602;-40
2021/07/26 04:40:27;;;;;;;10.98;7.63;;;;;;;;;;3588625;40;20245;-41
2021/07/26 04:42:55;;;;;;;10.32;7.90;;;;;;;;;;3588887;40;20317;-42
2021/07/26 04:45:22;;;;;;;11.27;8.90;;;;;;;;;;3589775;40;20238;-41
2021/07/26 04:47:51;;;;;;;13.40;8.98;;;;;;;;;;3588771;40;20249;-40
2021/07/26 04:50:18;;;;;;;9.18;8.27;;;;;;;;;;3589117;40;20238;-40
2021/07/26 04:52:45;;;;;;;10.07;7.95;;;;;;;;;;3588762;40;20332;-41
2021/07/26 04:55:13;;;;;;;13.15;9.38;;;;;;;;;;3589270;40;20234;-41
2021/07/26 04:57:40;;;;;;;14.02;8.95;;;;;;;;;;3588556;40;20235;-41
2021/07/26 05:00:08;;;;;;;14.65;8.27;;;;;;;;;;3588938;40;20238;-40
2021/07/26 05:02:36;;;;;;;14.60;7.00;;;;;;;;;;3589043;40;20241;-40
2021/07/26 05:05:04;;;;;;;10.63;7.95;;;;;;;;;;3588783;40;20237;-40
2021/07/26 05:07:32;;;;;;;11.05;8.48;;;;;;;;;;3589028;40;20246;-40
2021/07/26 05:09:59;;;;;;;10.35;8.60;;;;;;;;;;3588905;40;20234;-41
2021/07/26 05:12:26;;;;;;;11.07;9.27;;;;;;;;;;3596227;40;20551;-41
2021/07/26 05:14:54;;;;;;;12.60;9.38;;;;;;;;;;3599095;40;20256;-40
2021/07/26 05:17:24;;;;;;;12.13;8.85;;;;;;;;;;3598759;39;20238;-41
2021/07/26 05:19:51;;;;;;;10.98;9.00;;;;;;;;;;3598685;40;20245;-41
2021/07/26 05:22:20;;;;;;;9.40;8.52;;;;;;;;;;3598713;40;20241;-41
2021/07/26 05:24:47;;;;;;;13.02;10.13;;;;;;;;;;3589633;40;20257;-42
2021/07/26 05:27:14;;;;;;;10.43;8.15;;;;;;;;;;3598050;39;20249;-40
2021/07/26 05:29:42;;;;;;;10.60;9.00;;;;;;;;;;3598019;39;20234;-40
2021/07/26 05:32:10;;;;;;;12.40;8.20;;;;;;;;;;3598402;40;20238;-42
2021/07/26 05:34:37;;;;;;;10.93;8.45;;;;;;;;;;3591731;40;20237;-42
2021/07/26 05:37:05;;;;;;;9.82;7.57;;;;;;;;;;3597085;39;20263;-41
2021/07/26 05:39:33;;;;;;;11.30;8.85;;;;;;;;;;3598037;40;20234;-41
2021/07/26 05:42:01;;;;;;;10.48;8.80;;;;;;;;;;3596264;40;20237;-42
2021/07/26 05:44:29;;;;;;;9.52;8.57;;;;;;;;;;3598461;40;20218;-41
2021/07/26 05:46:56;;;;;;;13.00;8.27;;;;;;;;;;3594272;39;20246;-41
2021/07/26 05:49:24;;;;;;;9.57;7.95;;;;;;;;;;3594482;40;20237;-42
2021/07/26 05:51:51;;;;;;;9.00;7.88;;;;;;;;;;3593464;40;20580;-41
2021/07/26 05:54:18;;;;;;;8.95;7.50;;;;;;;;;;3585347;40;20615;-41
2021/07/26 05:56:49;;;;;;;14.70;7.82;;;;;;;;;;3593144;39;20234;-44
2021/07/26 05:59:17;;;;;;;11.02;7.68;;;;;;;;;;3593600;40;20238;-42
2021/07/26 06:01:50;;;;;;;7.75;6.50;;;;;;;;;;3594863;40;20335;-44
2021/07/26 06:04:18;;;;;;;9.73;7.20;;;;;;;;;;3590438;40;20246;-41
2021/07/26 06:06:45;;;;;;;12.90;8.05;;;;;;;;;;3592228;40;20598;-41
2021/07/26 06:09:13;;;;;;;8.55;6.80;;;;;;;;;;3598718;40;20234;-42
2021/07/26 06:11:41;;;;;;;9.80;6.65;;;;;;;;;;3598631;40;20263;-42
2021/07/26 06:14:10;;;;;;;7.70;6.75;;;;;;;;;;3598394;40;20343;-41
2021/07/26 06:16:41;;;;;;;9.05;6.43;;;;;;;;;;3598056;39;20267;-42
2021/07/26 06:19:10;;;;;;;10.38;5.72;;;;;;;;;;3598890;40;20245;-42
2021/07/26 06:21:44;;;;;;;7.47;5.82;;;;;;;;;;3598649;40;20594;-42
2021/07/26 06:24:12;;;;;;;8.10;5.97;;;;;;;;;;3598310;40;20389;-42
2021/07/26 06:26:40;;;;;;;7.20;6.07;;;;;;;;;;3597920;39;20257;-43
2021/07/26 06:29:08;;;;;;;6.32;5.72;;;;;;;;;;3598837;40;20225;-41
2021/07/26 06:31:37;;;;;;;7.05;5.53;;;;;;;;;;3597904;40;20244;-44
2021/07/26 06:34:05;;;;;;;4.68;4.25;;;;;;;;;;3598388;40;20601;-41
2021/07/26 06:36:33;;;;;;;5.47;4.55;;;;;;;;;;3598275;39;20534;-41
2021/07/26 06:39:00;;;;;;;7.72;4.95;;;;;;;;;;3599167;40;20738;-41
2021/07/26 06:41:27;;;;;;;7.57;5.30;;;;;;;;;;3598274;39;20548;-41
2021/07/26 06:43:55;;;;;;;5.35;4.85;;;;;;;;;;3598738;40;20764;-41
2021/07/26 06:46:22;;;;;;;6.50;5.75;;;;;;;;;;3598377;39;20237;-41
2021/07/26 06:48:51;;;;;;;5.80;5.20;;;;;;;;;;3599199;40;20238;-42
2021/07/26 06:51:18;;;;;;;9.32;5.10;;;;;;;;;;3599368;40;20620;-41
2021/07/26 06:53:46;;;;;;;7.43;5.15;;;;;;;;;;3598463;40;20236;-41
2021/07/26 06:56:13;;;;;;;4.78;4.30;;;;;;;;;;3589693;40;20242;-43
2021/07/26 06:58:41;;;;;;;5.57;4.13;;;;;;;;;;3588845;40;20238;-41
2021/07/26 07:01:11;;;;;;;5.38;3.45;;;;;;;;;;3588217;40;20246;-41
2021/07/26 07:03:38;;;;;;;4.20;3.80;;;;;;;;;;3588136;40;20242;-42
2021/07/26 07:06:08;;;;;;;4.60;4.15;;;;;;;;;;3588225;40;20254;-43
2021/07/26 07:08:35;;;;;;;6.53;3.65;;;;;;;;;;3588198;40;20239;-41
2021/07/26 07:11:04;;;;;;;4.22;3.83;;;;;;;;;;3589183;40;20249;-42
2021/07/26 07:13:31;;;;;;;6.38;4.13;;;;;;;;;;3588327;40;20222;-41
2021/07/26 07:15:58;;;;;;;4.95;3.58;;;;;;;;;;3576572;40;20420;-43
2021/07/26 07:18:26;;;;;;;4.40;3.90;;;;;;;;;;3578092;40;20239;-41
2021/07/26 07:20:54;;;;;;;4.47;4.07;;;;;;;;;;3586863;40;20250;-42
2021/07/26 07:23:23;;;;;;;4.68;3.65;;;;;;;;;;3589594;40;20485;-41
2021/07/26 07:25:50;;;;;;;5.93;4.45;;;;;;;;;;3581304;40;20254;-44
2021/07/26 07:28:18;;;;;;;4.40;4.00;;;;;;;;;;3585249;40;20241;-41
2021/07/26 07:30:45;;;;;;;5.80;3.83;;;;;;;;;;3585006;40;20536;-43
2021/07/26 07:33:13;;;;;;;4.43;3.38;;;;;;;;;;3589550;40;20328;-41
2021/07/26 07:35:40;;;;;;;4.25;3.85;;;;;;;;;;3583754;40;20301;-41
2021/07/26 07:38:08;;;;;;;4.75;4.00;;;;;;;;;;3587225;40;20519;-42
2021/07/26 07:40:38;;;;;;;4.45;3.88;;;;;;;;;;3590758;40;20271;-42
2021/07/26 07:43:06;;;;;;;4.82;4.35;;;;;;;;;;3590274;40;20253;-42
2021/07/26 07:45:33;;;;;;;5.55;4.18;;;;;;;;;;3585365;40;20605;-42
2021/07/26 07:48:01;;;;;;;3.10;2.80;;;;;;;;;;3591363;40;20328;-44
2021/07/26 07:50:29;;;;;;;4.85;3.40;;;;;;;;;;3586490;40;20246;-43
2021/07/26 07:52:58;;;;;;;3.30;3.00;;;;;;;;;;3588065;40;20254;-42
2021/07/26 07:55:26;;;;;;;3.60;3.30;;;;;;;;;;3590649;40;20610;-43
2021/07/26 07:57:55;;;;;;;4.18;3.60;;;;;;;;;;3588208;40;20234;-41
2021/07/26 08:00:23;;;;;;;3.90;3.30;;;;;;;;;;3591327;40;20246;-40
2021/07/26 08:02:50;;;;;;;3.83;3.50;;;;;;;;;;3591764;40;20233;-43
2021/07/26 08:05:18;;;;;;;4.13;3.83;;;;;;;;;;3591376;40;20226;-43
2021/07/26 08:07:46;;;;;;;3.47;3.17;;;;;;;;;;3589459;40;20259;-42
2021/07/26 08:10:14;;;;;;;3.60;3.33;;;;;;;;;;3579065;40;20273;-42
2021/07/26 08:12:41;;;;;;;3.55;3.25;;;;;;;;;;3591547;40;20552;-41
2021/07/26 08:15:10;;;;;;;3.90;3.40;;;;;;;;;;3589529;40;20288;-42
2021/07/26 08:17:41;;;;;;;3.55;3.25;;;;;;;;;;3590484;40;20522;-41
2021/07/26 08:20:09;;;;;;;3.85;3.55;;;;;;;;;;3589779;40;20269;-41
2021/07/26 08:22:36;;;;;;;3.83;3.53;;;;;;;;;;3590710;40;20242;-41
2021/07/26 08:25:04;;;;;;;3.55;3.25;;;;;;;;;;3590333;40;20545;-42
2021/07/26 08:27:31;;;;;;;3.20;3.00;;;;;;;;;;3595431;40;20250;-42
2021/07/26 08:30:00;;;;;;;3.88;3.58;;;;;;;;;;3590331;40;20249;-43
2021/07/26 08:32:28;;;;;;;3.80;3.08;;;;;;;;;;3590455;40;20241;-41
2021/07/26 08:34:56;;;;;;;3.45;3.15;;;;;;;;;;3589568;40;20555;-43
2021/07/26 08:37:30;;;;;;;3.83;3.45;;;;;;;;;;3588928;40;20234;-41
2021/07/26 08:39:57;;;;;;;3.03;2.80;;;;;;;;;;3589471;40;20234;-42
2021/07/26 08:42:24;;;;;;;3.28;2.90;;;;;;;;;;3588970;40;20257;-43
2021/07/26 08:44:52;;;;;;;3.28;2.35;;;;;;;;;;3589103;40;20243;-41
2021/07/26 08:47:19;;;;;;;10.73;3.00;;;;;;;;;;3588308;40;20626;-42
2021/07/26 08:49:48;;;;;;;4.82;2.50;;;;;;;;;;3588674;40;20245;-44
2021/07/26 08:52:17;;;;;;;3.00;2.80;;;;;;;;;;3586273;40;20308;-41
2021/07/26 08:54:45;;;;;;;3.22;2.97;;;;;;;;;;3589145;40;20230;-42
2021/07/26 08:57:12;;;;;;;2.63;2.42;;;;;;;;;;3592920;40;20609;-41
2021/07/26 08:59:40;;;;;;;3.20;2.92;;;;;;;;;;3598769;40;20238;-42
2021/07/26 09:02:07;;;;;;;4.13;3.13;;;;;;;;;;3591718;40;20620;-43
2021/07/26 09:04:37;;;;;;;3.00;2.70;;;;;;;;;;3588427;40;20346;-43
2021/07/26 09:07:07;;;;;;;3.67;3.38;;;;;;;;;;3579916;40;20291;-41
2021/07/26 09:09:42;;;;;;;3.25;3.05;;;;;;;;;;3589477;40;20239;-42
2021/07/26 09:12:10;;;;;;;3.83;2.63;;;;;;;;;;3589493;40;20237;-40
2021/07/26 09:14:38;;;;;;;3.22;2.92;;;;;;;;;;3589614;40;20543;-42
2021/07/26 09:17:06;;;;;;;3.50;2.72;;;;;;;;;;3588286;40;20250;-43
2021/07/26 09:19:48;;;;;;;2.83;2.53;;;;;;;;;;3589465;40;20613;-41
2021/07/26 09:22:27;;;;;;;3.45;3.20;;;;;;;;;;3594557;40;20238;-41
2021/07/26 09:25:11;;;;;;;4.40;3.35;;;;;;;;;;3589275;40;20253;-41
2021/07/26 09:27:38;;;;;;;3.22;2.88;;;;;;;;;;3588426;40;20242;-41
2021/07/26 09:30:14;;;;;;;3.33;2.80;;;;;;;;;;3588780;40;20281;-42
2021/07/26 09:32:42;;;;;;;3.15;2.80;;;;;;;;;;3579539;40;20270;-41
2021/07/26 09:35:10;;;;;;;4.07;3.05;;;;;;;;;;3589196;40;20308;-44
2021/07/26 09:37:39;;;;;;;3.35;3.05;;;;;;;;;;3588852;40;20331;-43
2021/07/26 09:40:23;;;;;;;3.20;2.97;;;;;;;;;;3579974;40;20597;-41
2021/07/26 09:42:51;;;;;;;3.28;2.40;;;;;;;;;;3589593;40;20278;-42
2021/07/26 09:45:22;;;;;;;3.13;2.92;;;;;;;;;;3589877;40;20242;-43
2021/07/26 09:48:04;;;;;;;5.50;2.97;;;;;;;;;;3590690;40;20250;-41
2021/07/26 09:50:34;;;;;;;3.20;2.83;;;;;;;;;;3582790;40;20624;-40
2021/07/26 09:53:08;;;;;;;3.60;3.20;;;;;;;;;;3582847;40;20319;-41
2021/07/26 09:55:36;;;;;;;3.00;2.70;;;;;;;;;;3590580;40;20266;-41
2021/07/26 09:58:04;;;;;;;3.47;3.17;;;;;;;;;;3588399;40;20251;-41
2021/07/26 10:00:32;;;;;;;3.00;2.80;;;;;;;;;;3588144;40;20338;-41
2021/07/26 10:02:59;;;;;;;3.40;3.03;;;;;;;;;;3587971;40;20518;-42
2021/07/26 10:05:31;;;;;;;5.95;3.25;;;;;;;;;;3579785;40;20624;-41
2021/07/26 10:08:01;;;;;;;2.70;2.50;;;;;;;;;;3588092;40;20513;-40
2021/07/26 10:10:31;;;;;;;2.97;2.67;;;;;;;;;;3588724;40;20286;-40
2021/07/26 10:12:59;;;;;;;3.38;2.92;;;;;;;;;;3583307;40;20708;-41
2021/07/26 10:15:27;;;;;;;3.60;2.40;;;;;;;;;;3587950;40;20238;-40
2021/07/26 10:17:55;;;;;;;3.85;2.58;;;;;;;;;;3587484;40;20614;-41
2021/07/26 10:20:23;;;;;;;3.60;3.17;;;;;;;;;;3588684;40;20315;-41
2021/07/26 10:22:51;;;;;;;3.17;2.90;;;;;;;;;;3588928;40;20253;-42
2021/07/26 10:25:22;;;;;;;2.45;2.25;;;;;;;;;;3587612;40;20257;-42
2021/07/26 10:27:51;;;;;;;2.53;2.33;;;;;;;;;;3585042;40;20235;-42
2021/07/26 10:30:31;;;;;;;2.58;2.20;;;;;;;;;;3575423;40;20247;-41
2021/07/26 10:32:59;;;;;;;3.08;2.10;;;;;;;;;;3578969;40;20279;-41
2021/07/26 10:35:37;;;;;;;4.45;2.20;;;;;;;;;;3578574;40;20275;-40
2021/07/26 10:38:05;;;;;;;2.60;2.15;;;;;;;;;;3581729;40;20628;-40
2021/07/26 10:40:32;;;;;;;2.55;1.95;;;;;;;;;;3588163;40;20234;-40
2021/07/26 10:43:03;;;;;;;2.70;2.35;;;;;;;;;;3579622;40;20235;-42
2021/07/26 10:45:49;;;;;;;1.90;1.80;;;;;;;;;;3579014;40;20235;-42
2021/07/26 10:48:32;;;;;;;4.40;2.45;;;;;;;;;;3587361;40;20602;-40
2021/07/26 10:51:00;;;;;;;2.65;2.30;;;;;;;;;;3587917;40;20291;-40
2021/07/26 10:53:49;;;;;;;3.50;2.15;;;;;;;;;;3588938;40;20238;-41
2021/07/26 10:56:16;;;;;;;3.17;2.47;;;;;;;;;;3585260;40;20312;-42
2021/07/26 10:59:02;;;;;;;3.95;2.42;;;;;;;;;;3588107;40;20298;-42
2021/07/26 11:01:37;;;;;;;2.25;2.15;;;;;;;;;;3587932;40;20521;-41
2021/07/26 11:04:05;;;;;;;2.28;2.10;;;;;;;;;;3589292;40;20257;-41
2021/07/26 11:06:51;;;;;;;3.13;2.42;;;;;;;;;;3589604;39;20234;-41
2021/07/26 11:09:37;;;;;;;2.95;2.45;;;;;;;;;;3588914;40;20234;-42
2021/07/26 11:12:05;;;;;;;2.40;2.20;;;;;;;;;;3580364;40;20250;-41
2021/07/26 11:14:33;;;;;;;3.78;2.80;;;;;;;;;;3588662;40;20235;-41
2021/07/26 11:17:03;;;;;;;2.47;2.25;;;;;;;;;;3587762;40;20256;-42
2021/07/26 11:19:31;;;;;;;2.13;1.92;;;;;;;;;;3585826;40;20220;-40
2021/07/26 11:21:59;;;;;;;2.17;1.80;;;;;;;;;;3587944;40;20230;-41
2021/07/26 11:24:41;;;;;;;2.25;2.00;;;;;;;;;;3588279;40;20488;-42
2021/07/26 11:27:09;;;;;;;8.75;2.10;;;;;;;;;;3588343;40;20344;-41
2021/07/26 11:29:36;;;;;;;3.92;2.63;;;;;;;;;;3593550;40;20240;-44
2021/07/26 11:32:05;;;;;;;2.60;2.30;;;;;;;;;;3594151;40;20247;-40
2021/07/26 11:34:34;;;;;;;2.30;2.10;;;;;;;;;;3586786;40;20242;-42
2021/07/26 11:37:08;;;;;;;2.63;2.03;;;;;;;;;;3586735;40;20243;-41
2021/07/26 11:39:49;;;;;;;2.13;1.92;;;;;;;;;;3589483;40;20237;-41
2021/07/26 11:42:17;;;;;;;2.33;1.90;;;;;;;;;;3592045;40;20238;-41
2021/07/26 11:44:46;;;;;;;2.47;2.28;;;;;;;;;;3587856;40;20577;-41
2021/07/26 11:47:15;;;;;;;2.75;2.22;;;;;;;;;;3587540;40;20235;-42
2021/07/26 11:49:49;;;;;;;2.50;2.00;;;;;;;;;;3587943;40;20241;-41
2021/07/26 11:52:17;;;;;;;1.83;1.73;;;;;;;;;;3595067;40;20230;-40
2021/07/26 11:54:44;;;;;;;2.78;2.03;;;;;;;;;;3588141;40;20698;-41
2021/07/26 11:57:13;;;;;;;3.03;2.78;;;;;;;;;;3591111;39;20319;-41
2021/07/26 11:59:41;;;;;;;5.35;2.70;;;;;;;;;;3587877;40;20263;-42
2021/07/26 12:02:10;;;;;;;2.75;2.05;;;;;;;;;;3588645;40;20315;-40
2021/07/26 12:04:39;;;;;;;2.67;2.22;;;;;;;;;;3593785;40;20226;-41
2021/07/26 12:07:07;;;;;;;2.90;2.13;;;;;;;;;;3598700;39;20635;-40
2021/07/26 12:09:36;;;;;;;2.58;2.38;;;;;;;;;;3599146;40;20508;-40
2021/07/26 12:12:09;;;;;;;2.28;2.10;;;;;;;;;;3587545;40;20245;-41
2021/07/26 12:14:37;;;;;;;4.75;1.92;;;;;;;;;;3588245;40;20234;-40
2021/07/26 12:17:05;;;;;;;2.78;2.05;;;;;;;;;;3587747;40;20242;-40
2021/07/26 12:19:33;;;;;;;7.47;2.55;;;;;;;;;;3592703;40;20237;-40
2021/07/26 12:22:18;;;;;;;3.13;2.17;;;;;;;;;;3598481;40;20310;-44
2021/07/26 12:24:47;;;;;;;2.53;2.33;;;;;;;;;;3597902;40;20233;-40
2021/07/26 12:27:26;;;;;;;2.58;2.42;;;;;;;;;;3597457;39;20314;-41
2021/07/26 12:29:54;;;;;;;2.53;2.13;;;;;;;;;;3598012;40;20249;-40
2021/07/26 12:32:22;;;;;;;2.25;2.05;;;;;;;;;;3590955;40;20238;-40
2021/07/26 12:35:08;;;;;;;2.45;2.25;;;;;;;;;;3588897;40;20245;-40
2021/07/26 12:37:37;;;;;;;2.90;2.13;;;;;;;;;;3577558;40;20246;-40
2021/07/26 12:40:14;;;;;;;2.50;2.30;;;;;;;;;;3589803;40;20284;-40
2021/07/26 12:42:42;;;;;;;2.38;2.17;;;;;;;;;;3589600;40;20234;-40
2021/07/26 12:45:20;;;;;;;3.67;2.28;;;;;;;;;;3593392;40;20239;-41
2021/07/26 12:47:47;;;;;;;2.47;2.25;;;;;;;;;;3591905;40;20246;-40
2021/07/26 12:50:15;;;;;;;3.55;2.50;;;;;;;;;;3593578;40;20299;-40
2021/07/26 12:52:44;;;;;;;3.42;2.90;;;;;;;;;;3594532;40;20234;-40
2021/07/26 12:55:15;;;;;;;6.28;2.03;;;;;;;;;;3600975;40;20249;-40
2021/07/26 12:57:42;;;;;;;3.55;2.50;;;;;;;;;;3601750;39;20230;-40
2021/07/26 13:00:10;;;;;;;2.78;2.40;;;;;;;;;;3590668;40;20249;-40
2021/07/26 13:02:37;;;;;;;4.75;2.33;;;;;;;;;;3589358;40;20236;-41
2021/07/26 13:05:05;;;;;;;4.00;2.33;;;;;;;;;;3589726;40;20242;-40
2021/07/26 13:07:32;;;;;;;2.70;2.50;;;;;;;;;;3589257;40;20528;-40
2021/07/26 13:10:01;;;;;;;4.75;2.22;;;;;;;;;;3590600;40;20242;-40
2021/07/26 13:12:28;;;;;;;3.53;2.60;;;;;;;;;;3593027;40;20234;-40
2021/07/26 13:14:55;;;;;;;2.88;2.67;;;;;;;;;;3593828;40;20302;-41
2021/07/26 13:17:23;;;;;;;4.95;2.72;;;;;;;;;;3592920;40;20242;-40
2021/07/26 13:19:50;;;;;;;6.05;2.42;;;;;;;;;;3593517;40;20245;-41
2021/07/26 13:22:17;;;;;;;5.97;2.88;;;;;;;;;;3592345;40;20246;-40
2021/07/26 13:24:44;;;;;;;3.83;2.97;;;;;;;;;;3593069;40;20628;-40
2021/07/26 13:27:14;;;;;;;2.90;2.65;;;;;;;;;;3592782;40;20254;-45
2021/07/26 13:29:41;;;;;;;3.60;2.25;;;;;;;;;;3592808;40;20234;-40
2021/07/26 13:32:09;;;;;;;3.08;2.53;;;;;;;;;;3592353;40;20238;-42
2021/07/26 13:34:36;;;;;;;3.35;3.00;;;;;;;;;;3593060;40;20238;-40
2021/07/26 13:37:03;;;;;;;5.20;2.58;;;;;;;;;;3592437;40;20250;-40
2021/07/26 13:39:31;;;;;;;5.35;3.10;;;;;;;;;;3594609;40;20503;-40
2021/07/26 13:41:58;;;;;;;5.80;3.70;;;;;;;;;;3603046;40;20237;-41
2021/07/26 13:44:28;;;;;;;2.72;2.45;;;;;;;;;;3599267;40;20250;-41
2021/07/26 13:46:55;;;;;;;2.97;2.63;;;;;;;;;;3592215;40;20614;-39
2021/07/26 13:49:22;;;;;;;4.60;2.80;;;;;;;;;;3592703;40;20490;-40
2021/07/26 13:51:50;;;;;;;4.75;2.67;;;;;;;;;;3591740;40;20242;-41
2021/07/26 13:54:18;;;;;;;7.10;2.75;;;;;;;;;;3587545;40;20230;-41
2021/07/26 13:56:45;;;;;;;4.95;2.95;;;;;;;;;;3591352;40;20226;-41
2021/07/26 13:59:12;;;;;;;6.03;2.83;;;;;;;;;;3590697;40;20288;-43
2021/07/26 14:01:41;;;;;;;4.10;2.50;;;;;;;;;;3588650;40;20310;-40
2021/07/26 14:04:08;;;;;;;4.10;2.75;;;;;;;;;;3583270;40;20257;-43
2021/07/26 14:06:36;;;;;;;3.15;2.40;;;;;;;;;;3586398;40;20250;-41
2021/07/26 14:09:03;;;;;;;4.70;2.05;;;;;;;;;;3585229;40;20511;-41
2021/07/26 14:11:30;;;;;;;2.50;2.30;;;;;;;;;;3583162;40;20518;-41
2021/07/26 14:13:58;;;;;;;2.75;2.42;;;;;;;;;;3583790;40;20253;-42
2021/07/26 14:16:25;;;;;;;2.35;2.15;;;;;;;;;;3579911;40;20253;-41
2021/07/26 14:18:54;;;;;;;3.15;2.85;;;;;;;;;;3588121;40;20239;-41
2021/07/26 14:21:21;;;;;;;2.50;2.30;;;;;;;;;;3585100;40;20235;-42
2021/07/26 14:23:48;;;;;;;2.50;2.30;;;;;;;;;;3578571;40;20633;-41
2021/07/26 14:26:15;;;;;;;3.47;2.50;;;;;;;;;;3578178;40;20671;-42
2021/07/26 14:28:43;;;;;;;3.53;2.20;;;;;;;;;;3586858;40;20246;-40
2021/07/26 14:31:10;;;;;;;2.40;2.20;;;;;;;;;;3588471;40;20231;-46
2021/07/26 14:33:37;;;;;;;2.10;1.85;;;;;;;;;;3579103;40;20235;-41
2021/07/26 14:36:06;;;;;;;2.03;1.83;;;;;;;;;;3588177;40;20242;-42
2021/07/26 14:38:33;;;;;;;3.97;2.22;;;;;;;;;;3588171;40;20226;-42
2021/07/26 14:41:01;;;;;;;2.58;2.38;;;;;;;;;;3588149;40;20262;-43
2021/07/26 14:43:28;;;;;;;2.80;2.17;;;;;;;;;;3588562;40;20658;-41
2021/07/26 14:45:56;;;;;;;4.32;2.10;;;;;;;;;;3588733;40;20264;-41
2021/07/26 14:48:23;;;;;;;2.40;2.20;;;;;;;;;;3588282;40;20238;-41